sensor_id;sensor_type;location;lat;lon;timestamp;P1;durP1;ratioP1;P2;durP2;ratioP2
8439;SDS011;4257;48.568;7.818;2024-03-23T00:52:47;0.73;;;0.60;;
8439;SDS011;4257;48.568;7.818;2024-03-23T00:55:14;0.97;;;0.60;;
8439;SDS011;4257;48.568;7.818;2024-03-23T00:57:40;1.70;;;0.70;;
8439;SDS011;4257;48.568;7.818;2024-03-23T01:00:06;1.23;;;1.00;;
8439;SDS011;4257;48.568;7.818;2024-03-23T01:02:35;0.70;;;0.40;;
8439;SDS011;4257;48.568;7.818;2024-03-23T01:05:00;1.07;;;0.73;;
8439;SDS011;4257;48.568;7.818;2024-03-23T01:07:27;4.80;;;0.93;;
8439;SDS011;4257;48.568;7.818;2024-03-23T01:09:54;0.53;;;0.50;;
8439;SDS011;4257;48.568;7.818;2024-03-23T01:12:20;0.70;;;0.47;;
8439;SDS011;4257;48.568;7.818;2024-03-23T01:14:46;1.53;;;0.70;;
8439;SDS011;4257;48.568;7.818;2024-03-23T01:17:13;0.50;;;0.50;;
8439;SDS011;4257;48.568;7.818;2024-03-23T01:19:38;0.90;;;0.70;;
8439;SDS011;4257;48.568;7.818;2024-03-23T01:22:06;1.17;;;1.07;;
8439;SDS011;4257;48.568;7.818;2024-03-23T01:24:32;1.37;;;0.57;;
8439;SDS011;4257;48.568;7.818;2024-03-23T01:26:59;3.27;;;0.53;;
8439;SDS011;4257;48.568;7.818;2024-03-23T01:29:25;0.70;;;0.50;;
8439;SDS011;4257;48.568;7.818;2024-03-23T01:31:51;0.87;;;0.60;;
8439;SDS011;4257;48.568;7.818;2024-03-23T01:34:17;1.23;;;0.97;;
8439;SDS011;4257;48.568;7.818;2024-03-23T01:36:45;0.50;;;0.50;;
8439;SDS011;4257;48.568;7.818;2024-03-23T01:39:11;1.43;;;1.27;;
8439;SDS011;4257;48.568;7.818;2024-03-23T01:41:39;1.67;;;1.13;;
8439;SDS011;4257;48.568;7.818;2024-03-23T01:44:08;1.13;;;0.63;;
8439;SDS011;4257;48.568;7.818;2024-03-23T01:46:36;0.50;;;0.50;;
8439;SDS011;4257;48.568;7.818;2024-03-23T01:49:02;1.23;;;1.10;;
8439;SDS011;4257;48.568;7.818;2024-03-23T01:51:28;1.70;;;0.87;;
8439;SDS011;4257;48.568;7.818;2024-03-23T01:53:54;7.13;;;1.43;;
8439;SDS011;4257;48.568;7.818;2024-03-23T01:56:22;1.27;;;0.50;;
8439;SDS011;4257;48.568;7.818;2024-03-23T01:58:48;3.67;;;1.10;;
8439;SDS011;4257;48.568;7.818;2024-03-23T02:01:16;2.43;;;0.80;;
8439;SDS011;4257;48.568;7.818;2024-03-23T02:03:41;1.03;;;0.93;;
8439;SDS011;4257;48.568;7.818;2024-03-23T02:06:08;0.57;;;0.50;;
8439;SDS011;4257;48.568;7.818;2024-03-23T02:08:34;1.13;;;0.93;;
8439;SDS011;4257;48.568;7.818;2024-03-23T02:11:00;1.33;;;0.70;;
8439;SDS011;4257;48.568;7.818;2024-03-23T02:13:26;2.90;;;1.93;;
8439;SDS011;4257;48.568;7.818;2024-03-23T02:15:53;1.07;;;0.70;;
8439;SDS011;4257;48.568;7.818;2024-03-23T02:18:19;1.77;;;1.20;;
8439;SDS011;4257;48.568;7.818;2024-03-23T02:20:46;1.13;;;0.93;;
8439;SDS011;4257;48.568;7.818;2024-03-23T02:23:16;1.80;;;0.63;;
8439;SDS011;4257;48.568;7.818;2024-03-23T02:25:43;1.50;;;1.00;;
8439;SDS011;4257;48.568;7.818;2024-03-23T02:28:08;1.40;;;0.70;;
8439;SDS011;4257;48.568;7.818;2024-03-23T02:30:35;1.00;;;0.90;;
8439;SDS011;4257;48.568;7.818;2024-03-23T02:33:00;2.87;;;0.60;;
8439;SDS011;4257;48.568;7.818;2024-03-23T02:35:27;0.80;;;0.60;;
8439;SDS011;4257;48.568;7.818;2024-03-23T02:37:52;1.93;;;0.90;;
8439;SDS011;4257;48.568;7.818;2024-03-23T02:40:22;0.60;;;0.60;;
8439;SDS011;4257;48.568;7.818;2024-03-23T02:42:48;0.90;;;0.70;;
8439;SDS011;4257;48.568;7.818;2024-03-23T02:45:14;1.27;;;1.07;;
8439;SDS011;4257;48.568;7.818;2024-03-23T02:47:40;2.57;;;1.00;;
8439;SDS011;4257;48.568;7.818;2024-03-23T02:50:07;2.00;;;1.43;;
8439;SDS011;4257;48.568;7.818;2024-03-23T02:52:34;0.83;;;0.63;;
8439;SDS011;4257;48.568;7.818;2024-03-23T02:55:00;2.87;;;1.30;;
8439;SDS011;4257;48.568;7.818;2024-03-23T02:57:28;1.53;;;0.60;;
8439;SDS011;4257;48.568;7.818;2024-03-23T02:59:55;1.10;;;0.80;;
8439;SDS011;4257;48.568;7.818;2024-03-23T03:02:20;7.77;;;1.03;;
8439;SDS011;4257;48.568;7.818;2024-03-23T03:04:47;1.10;;;0.77;;
8439;SDS011;4257;48.568;7.818;2024-03-23T03:07:12;0.90;;;0.80;;
8439;SDS011;4257;48.568;7.818;2024-03-23T03:09:39;1.13;;;1.03;;
8439;SDS011;4257;48.568;7.818;2024-03-23T03:12:05;0.87;;;0.80;;
8439;SDS011;4257;48.568;7.818;2024-03-23T03:14:33;3.37;;;1.50;;
8439;SDS011;4257;48.568;7.818;2024-03-23T03:16:58;4.60;;;1.73;;
8439;SDS011;4257;48.568;7.818;2024-03-23T03:19:25;6.60;;;1.40;;
8439;SDS011;4257;48.568;7.818;2024-03-23T03:21:52;1.90;;;1.57;;
8439;SDS011;4257;48.568;7.818;2024-03-23T03:24:18;6.73;;;2.37;;
8439;SDS011;4257;48.568;7.818;2024-03-23T03:26:44;1.33;;;1.10;;
8439;SDS011;4257;48.568;7.818;2024-03-23T03:29:10;3.33;;;1.90;;
8439;SDS011;4257;48.568;7.818;2024-03-23T03:31:38;1.47;;;0.90;;
8439;SDS011;4257;48.568;7.818;2024-03-23T03:34:04;3.47;;;0.80;;
8439;SDS011;4257;48.568;7.818;2024-03-23T03:36:30;3.43;;;0.87;;
8439;SDS011;4257;48.568;7.818;2024-03-23T03:38:56;3.50;;;1.30;;
8439;SDS011;4257;48.568;7.818;2024-03-23T03:41:22;1.27;;;0.93;;
8439;SDS011;4257;48.568;7.818;2024-03-23T03:43:48;2.17;;;1.03;;
8439;SDS011;4257;48.568;7.818;2024-03-23T03:46:14;3.03;;;1.27;;
8439;SDS011;4257;48.568;7.818;2024-03-23T03:48:42;2.57;;;1.60;;
8439;SDS011;4257;48.568;7.818;2024-03-23T03:51:10;2.97;;;1.93;;
8439;SDS011;4257;48.568;7.818;2024-03-23T03:53:37;2.60;;;1.40;;
8439;SDS011;4257;48.568;7.818;2024-03-23T03:56:02;3.43;;;2.30;;
8439;SDS011;4257;48.568;7.818;2024-03-23T03:58:29;3.33;;;1.93;;
8439;SDS011;4257;48.568;7.818;2024-03-23T04:00:55;2.70;;;2.30;;
8439;SDS011;4257;48.568;7.818;2024-03-23T04:03:21;6.43;;;2.20;;
8439;SDS011;4257;48.568;7.818;2024-03-23T04:05:51;2.47;;;1.33;;
8439;SDS011;4257;48.568;7.818;2024-03-23T04:08:17;3.00;;;1.60;;
8439;SDS011;4257;48.568;7.818;2024-03-23T04:10:43;4.87;;;2.07;;
8439;SDS011;4257;48.568;7.818;2024-03-23T04:13:09;2.63;;;2.10;;
8439;SDS011;4257;48.568;7.818;2024-03-23T04:15:35;4.10;;;1.33;;
8439;SDS011;4257;48.568;7.818;2024-03-23T04:18:01;4.60;;;2.37;;
8439;SDS011;4257;48.568;7.818;2024-03-23T04:20:27;1.87;;;1.40;;
8439;SDS011;4257;48.568;7.818;2024-03-23T04:22:55;2.70;;;1.93;;
8439;SDS011;4257;48.568;7.818;2024-03-23T04:25:20;2.80;;;1.57;;
8439;SDS011;4257;48.568;7.818;2024-03-23T04:27:47;3.47;;;1.80;;
8439;SDS011;4257;48.568;7.818;2024-03-23T04:30:12;3.23;;;1.87;;
8439;SDS011;4257;48.568;7.818;2024-03-23T04:32:40;4.40;;;2.60;;
8439;SDS011;4257;48.568;7.818;2024-03-23T04:35:07;1.60;;;1.20;;
8439;SDS011;4257;48.568;7.818;2024-03-23T04:37:35;1.17;;;1.10;;
8439;SDS011;4257;48.568;7.818;2024-03-23T04:40:03;2.83;;;1.70;;
8439;SDS011;4257;48.568;7.818;2024-03-23T04:42:30;3.37;;;1.93;;
8439;SDS011;4257;48.568;7.818;2024-03-23T04:44:57;2.23;;;1.03;;
8439;SDS011;4257;48.568;7.818;2024-03-23T04:47:23;1.80;;;1.20;;
8439;SDS011;4257;48.568;7.818;2024-03-23T04:49:50;1.87;;;1.63;;
8439;SDS011;4257;48.568;7.818;2024-03-23T04:52:21;0.77;;;0.77;;
8439;SDS011;4257;48.568;7.818;2024-03-23T04:54:47;0.70;;;0.70;;
8439;SDS011;4257;48.568;7.818;2024-03-23T04:57:15;1.03;;;0.83;;
8439;SDS011;4257;48.568;7.818;2024-03-23T04:59:41;0.50;;;0.50;;
8439;SDS011;4257;48.568;7.818;2024-03-23T05:02:08;0.80;;;0.63;;
8439;SDS011;4257;48.568;7.818;2024-03-23T05:04:33;0.73;;;0.60;;
8439;SDS011;4257;48.568;7.818;2024-03-23T05:07:02;0.83;;;0.50;;
8439;SDS011;4257;48.568;7.818;2024-03-23T05:09:27;0.40;;;0.40;;
8439;SDS011;4257;48.568;7.818;2024-03-23T05:11:55;1.43;;;0.40;;
8439;SDS011;4257;48.568;7.818;2024-03-23T05:14:22;0.47;;;0.43;;
8439;SDS011;4257;48.568;7.818;2024-03-23T05:16:49;0.23;;;0.20;;
8439;SDS011;4257;48.568;7.818;2024-03-23T05:19:14;0.20;;;0.10;;
8439;SDS011;4257;48.568;7.818;2024-03-23T05:21:40;0.20;;;0.10;;
8439;SDS011;4257;48.568;7.818;2024-03-23T05:24:06;0.40;;;0.20;;
8439;SDS011;4257;48.568;7.818;2024-03-23T05:26:33;0.20;;;0.17;;
8439;SDS011;4257;48.568;7.818;2024-03-23T05:29:00;2.53;;;0.37;;
8439;SDS011;4257;48.568;7.818;2024-03-23T05:31:29;1.80;;;0.97;;
8439;SDS011;4257;48.568;7.818;2024-03-23T05:33:56;0.20;;;0.10;;
8439;SDS011;4257;48.568;7.818;2024-03-23T05:36:22;0.27;;;0.27;;
8439;SDS011;4257;48.568;7.818;2024-03-23T05:38:48;0.20;;;0.10;;
8439;SDS011;4257;48.568;7.818;2024-03-23T05:41:16;0.40;;;0.30;;
8439;SDS011;4257;48.568;7.818;2024-03-23T05:43:43;0.20;;;0.20;;
8439;SDS011;4257;48.568;7.818;2024-03-23T05:46:09;0.30;;;0.20;;
8439;SDS011;4257;48.568;7.818;2024-03-23T05:48:36;0.27;;;0.20;;
8439;SDS011;4257;48.568;7.818;2024-03-23T05:51:03;0.20;;;0.10;;
8439;SDS011;4257;48.568;7.818;2024-03-23T05:53:28;0.20;;;0.10;;
8439;SDS011;4257;48.568;7.818;2024-03-23T05:56:00;0.40;;;0.30;;
8439;SDS011;4257;48.568;7.818;2024-03-23T05:58:26;0.20;;;0.10;;
8439;SDS011;4257;48.568;7.818;2024-03-23T06:00:56;0.40;;;0.20;;
8439;SDS011;4257;48.568;7.818;2024-03-23T06:03:22;0.20;;;0.10;;
8439;SDS011;4257;48.568;7.818;2024-03-23T06:05:51;0.30;;;0.20;;
8439;SDS011;4257;48.568;7.818;2024-03-23T06:08:18;0.20;;;0.20;;
8439;SDS011;4257;48.568;7.818;2024-03-23T06:10:45;0.20;;;0.10;;
8439;SDS011;4257;48.568;7.818;2024-03-23T06:13:11;0.20;;;0.10;;
8439;SDS011;4257;48.568;7.818;2024-03-23T06:15:37;0.20;;;0.10;;
8439;SDS011;4257;48.568;7.818;2024-03-23T06:18:03;0.20;;;0.10;;
8439;SDS011;4257;48.568;7.818;2024-03-23T06:20:32;0.20;;;0.10;;
8439;SDS011;4257;48.568;7.818;2024-03-23T06:22:59;0.30;;;0.20;;
8439;SDS011;4257;48.568;7.818;2024-03-23T06:25:25;0.20;;;0.10;;
8439;SDS011;4257;48.568;7.818;2024-03-23T06:27:51;0.20;;;0.10;;
8439;SDS011;4257;48.568;7.818;2024-03-23T06:30:17;0.20;;;0.10;;
8439;SDS011;4257;48.568;7.818;2024-03-23T06:32:43;0.30;;;0.30;;
8439;SDS011;4257;48.568;7.818;2024-03-23T06:35:09;0.20;;;0.10;;
8439;SDS011;4257;48.568;7.818;2024-03-23T06:37:35;0.30;;;0.20;;
8439;SDS011;4257;48.568;7.818;2024-03-23T06:40:03;0.20;;;0.10;;
8439;SDS011;4257;48.568;7.818;2024-03-23T06:42:33;1.67;;;0.30;;
8439;SDS011;4257;48.568;7.818;2024-03-23T06:44:59;0.20;;;0.20;;
8439;SDS011;4257;48.568;7.818;2024-03-23T06:47:25;0.20;;;0.10;;
8439;SDS011;4257;48.568;7.818;2024-03-23T06:49:51;0.40;;;0.40;;
8439;SDS011;4257;48.568;7.818;2024-03-23T06:52:17;0.20;;;0.20;;
8439;SDS011;4257;48.568;7.818;2024-03-23T06:54:43;0.30;;;0.23;;
8439;SDS011;4257;48.568;7.818;2024-03-23T06:57:11;0.23;;;0.20;;
8439;SDS011;4257;48.568;7.818;2024-03-23T06:59:37;1.47;;;0.30;;
8439;SDS011;4257;48.568;7.818;2024-03-23T07:02:03;0.20;;;0.20;;
8439;SDS011;4257;48.568;7.818;2024-03-23T07:04:30;0.70;;;0.37;;
8439;SDS011;4257;48.568;7.818;2024-03-23T07:06:55;0.30;;;0.30;;
8439;SDS011;4257;48.568;7.818;2024-03-23T07:09:22;0.20;;;0.13;;
8439;SDS011;4257;48.568;7.818;2024-03-23T07:11:51;0.23;;;0.20;;
8439;SDS011;4257;48.568;7.818;2024-03-23T07:14:18;0.50;;;0.50;;
8439;SDS011;4257;48.568;7.818;2024-03-23T07:16:44;1.33;;;0.30;;
8439;SDS011;4257;48.568;7.818;2024-03-23T07:19:09;0.40;;;0.20;;
8439;SDS011;4257;48.568;7.818;2024-03-23T07:21:36;0.83;;;0.70;;
8439;SDS011;4257;48.568;7.818;2024-03-23T07:24:01;0.60;;;0.57;;
8439;SDS011;4257;48.568;7.818;2024-03-23T07:26:28;0.60;;;0.60;;
8439;SDS011;4257;48.568;7.818;2024-03-23T07:28:53;0.60;;;0.57;;
8439;SDS011;4257;48.568;7.818;2024-03-23T07:31:21;0.67;;;0.47;;
8439;SDS011;4257;48.568;7.818;2024-03-23T07:33:48;4.40;;;0.47;;
8439;SDS011;4257;48.568;7.818;2024-03-23T07:36:15;0.83;;;0.63;;
8439;SDS011;4257;48.568;7.818;2024-03-23T07:38:40;0.43;;;0.30;;
8439;SDS011;4257;48.568;7.818;2024-03-23T07:41:07;1.90;;;0.53;;
8439;SDS011;4257;48.568;7.818;2024-03-23T07:43:34;2.33;;;0.87;;
8439;SDS011;4257;48.568;7.818;2024-03-23T07:46:00;1.50;;;1.03;;
8439;SDS011;4257;48.568;7.818;2024-03-23T07:48:27;1.33;;;0.57;;
8439;SDS011;4257;48.568;7.818;2024-03-23T07:50:58;0.60;;;0.57;;
8439;SDS011;4257;48.568;7.818;2024-03-23T07:53:26;0.53;;;0.40;;
8439;SDS011;4257;48.568;7.818;2024-03-23T07:55:56;1.00;;;0.90;;
8439;SDS011;4257;48.568;7.818;2024-03-23T07:58:25;0.80;;;0.40;;
8439;SDS011;4257;48.568;7.818;2024-03-23T08:00:52;5.17;;;0.80;;
8439;SDS011;4257;48.568;7.818;2024-03-23T08:03:17;0.87;;;0.60;;
8439;SDS011;4257;48.568;7.818;2024-03-23T08:05:45;0.77;;;0.60;;
8439;SDS011;4257;48.568;7.818;2024-03-23T08:08:11;3.43;;;0.77;;
8439;SDS011;4257;48.568;7.818;2024-03-23T08:10:46;1.83;;;0.80;;
8439;SDS011;4257;48.568;7.818;2024-03-23T08:13:12;4.73;;;1.43;;
8439;SDS011;4257;48.568;7.818;2024-03-23T08:15:39;4.57;;;1.33;;
8439;SDS011;4257;48.568;7.818;2024-03-23T08:18:04;0.63;;;0.50;;
8439;SDS011;4257;48.568;7.818;2024-03-23T08:20:31;1.07;;;0.70;;
8439;SDS011;4257;48.568;7.818;2024-03-23T08:22:58;1.20;;;0.93;;
8439;SDS011;4257;48.568;7.818;2024-03-23T08:25:24;2.23;;;1.27;;
8439;SDS011;4257;48.568;7.818;2024-03-23T08:27:50;1.00;;;0.80;;
8439;SDS011;4257;48.568;7.818;2024-03-23T08:30:17;2.80;;;1.73;;
8439;SDS011;4257;48.568;7.818;2024-03-23T08:32:42;1.37;;;0.93;;
8439;SDS011;4257;48.568;7.818;2024-03-23T08:35:09;2.90;;;2.50;;
8439;SDS011;4257;48.568;7.818;2024-03-23T08:37:34;1.13;;;1.00;;
8439;SDS011;4257;48.568;7.818;2024-03-23T08:40:02;3.63;;;0.93;;
8439;SDS011;4257;48.568;7.818;2024-03-23T08:42:29;1.57;;;0.90;;
8439;SDS011;4257;48.568;7.818;2024-03-23T08:44:56;3.57;;;1.47;;
8439;SDS011;4257;48.568;7.818;2024-03-23T08:47:21;0.97;;;0.73;;
8439;SDS011;4257;48.568;7.818;2024-03-23T08:49:48;3.53;;;0.97;;
8439;SDS011;4257;48.568;7.818;2024-03-23T08:52:13;1.20;;;1.00;;
8439;SDS011;4257;48.568;7.818;2024-03-23T08:54:40;3.90;;;1.50;;
8439;SDS011;4257;48.568;7.818;2024-03-23T08:57:06;3.53;;;1.50;;
8439;SDS011;4257;48.568;7.818;2024-03-23T08:59:33;1.67;;;1.53;;
8439;SDS011;4257;48.568;7.818;2024-03-23T09:01:58;1.97;;;1.13;;
8439;SDS011;4257;48.568;7.818;2024-03-23T09:04:25;0.93;;;0.80;;
8439;SDS011;4257;48.568;7.818;2024-03-23T09:06:50;1.40;;;1.23;;
8439;SDS011;4257;48.568;7.818;2024-03-23T09:09:17;4.47;;;1.03;;
8439;SDS011;4257;48.568;7.818;2024-03-23T09:11:42;1.03;;;0.97;;
8439;SDS011;4257;48.568;7.818;2024-03-23T09:14:10;1.03;;;0.90;;
8439;SDS011;4257;48.568;7.818;2024-03-23T09:16:36;0.93;;;0.83;;
8439;SDS011;4257;48.568;7.818;2024-03-23T09:19:02;1.17;;;0.67;;
8439;SDS011;4257;48.568;7.818;2024-03-23T09:21:28;8.37;;;1.83;;
8439;SDS011;4257;48.568;7.818;2024-03-23T09:23:54;1.97;;;1.20;;
8439;SDS011;4257;48.568;7.818;2024-03-23T09:26:20;5.60;;;1.10;;
8439;SDS011;4257;48.568;7.818;2024-03-23T09:28:48;3.00;;;1.00;;
8439;SDS011;4257;48.568;7.818;2024-03-23T09:31:15;0.73;;;0.50;;
8439;SDS011;4257;48.568;7.818;2024-03-23T09:33:41;0.87;;;0.43;;
8439;SDS011;4257;48.568;7.818;2024-03-23T09:36:07;0.50;;;0.40;;
8439;SDS011;4257;48.568;7.818;2024-03-23T09:38:34;0.40;;;0.30;;
8439;SDS011;4257;48.568;7.818;2024-03-23T09:40:59;0.50;;;0.50;;
8439;SDS011;4257;48.568;7.818;2024-03-23T09:43:26;0.30;;;0.30;;
8439;SDS011;4257;48.568;7.818;2024-03-23T09:45:52;0.70;;;0.30;;
8439;SDS011;4257;48.568;7.818;2024-03-23T09:48:20;0.50;;;0.40;;
8439;SDS011;4257;48.568;7.818;2024-03-23T09:50:46;0.93;;;0.60;;
8439;SDS011;4257;48.568;7.818;2024-03-23T09:53:13;1.40;;;0.50;;
8439;SDS011;4257;48.568;7.818;2024-03-23T09:55:39;0.60;;;0.40;;
8439;SDS011;4257;48.568;7.818;2024-03-23T09:58:07;0.60;;;0.50;;
8439;SDS011;4257;48.568;7.818;2024-03-23T10:00:34;0.40;;;0.40;;
8439;SDS011;4257;48.568;7.818;2024-03-23T10:03:00;0.80;;;0.50;;
8439;SDS011;4257;48.568;7.818;2024-03-23T10:05:28;1.03;;;0.37;;
8439;SDS011;4257;48.568;7.818;2024-03-23T10:07:56;1.30;;;0.90;;
8439;SDS011;4257;48.568;7.818;2024-03-23T10:10:22;2.07;;;1.20;;
8439;SDS011;4257;48.568;7.818;2024-03-23T10:12:51;1.47;;;0.60;;
8439;SDS011;4257;48.568;7.818;2024-03-23T10:15:18;0.50;;;0.47;;
8439;SDS011;4257;48.568;7.818;2024-03-23T10:17:45;0.40;;;0.40;;
8439;SDS011;4257;48.568;7.818;2024-03-23T10:20:10;1.20;;;0.67;;
8439;SDS011;4257;48.568;7.818;2024-03-23T10:22:38;0.70;;;0.60;;
8439;SDS011;4257;48.568;7.818;2024-03-23T10:25:07;0.47;;;0.40;;
8439;SDS011;4257;48.568;7.818;2024-03-23T10:27:36;0.50;;;0.50;;
8439;SDS011;4257;48.568;7.818;2024-03-23T10:30:08;2.70;;;1.20;;
8439;SDS011;4257;48.568;7.818;2024-03-23T10:32:36;5.07;;;2.10;;
8439;SDS011;4257;48.568;7.818;2024-03-23T10:35:13;1.63;;;1.23;;
8439;SDS011;4257;48.568;7.818;2024-03-23T10:37:41;3.13;;;1.40;;
8439;SDS011;4257;48.568;7.818;2024-03-23T10:40:08;1.10;;;0.50;;
8439;SDS011;4257;48.568;7.818;2024-03-23T10:42:36;0.70;;;0.70;;
8439;SDS011;4257;48.568;7.818;2024-03-23T10:45:02;0.97;;;0.77;;
8439;SDS011;4257;48.568;7.818;2024-03-23T10:47:31;0.57;;;0.50;;
8439;SDS011;4257;48.568;7.818;2024-03-23T10:49:57;4.63;;;0.90;;
8439;SDS011;4257;48.568;7.818;2024-03-23T10:52:24;5.70;;;1.93;;
8439;SDS011;4257;48.568;7.818;2024-03-23T10:54:51;2.00;;;1.27;;
8439;SDS011;4257;48.568;7.818;2024-03-23T10:57:20;0.90;;;0.67;;
8439;SDS011;4257;48.568;7.818;2024-03-23T10:59:47;1.90;;;0.90;;
8439;SDS011;4257;48.568;7.818;2024-03-23T11:02:18;0.70;;;0.67;;
8439;SDS011;4257;48.568;7.818;2024-03-23T11:04:44;0.87;;;0.87;;
8439;SDS011;4257;48.568;7.818;2024-03-23T11:07:28;3.73;;;0.67;;
8439;SDS011;4257;48.568;7.818;2024-03-23T11:09:56;2.13;;;1.20;;
8439;SDS011;4257;48.568;7.818;2024-03-23T11:12:26;0.90;;;0.80;;
8439;SDS011;4257;48.568;7.818;2024-03-23T11:14:53;1.20;;;0.80;;
8439;SDS011;4257;48.568;7.818;2024-03-23T11:17:22;0.77;;;0.70;;
8439;SDS011;4257;48.568;7.818;2024-03-23T11:19:54;0.60;;;0.43;;
8439;SDS011;4257;48.568;7.818;2024-03-23T11:22:43;5.07;;;1.20;;
8439;SDS011;4257;48.568;7.818;2024-03-23T11:25:16;1.47;;;0.97;;
8439;SDS011;4257;48.568;7.818;2024-03-23T11:27:45;0.80;;;0.30;;
8439;SDS011;4257;48.568;7.818;2024-03-23T11:30:11;7.80;;;0.73;;
8439;SDS011;4257;48.568;7.818;2024-03-23T11:32:39;0.80;;;0.60;;
8439;SDS011;4257;48.568;7.818;2024-03-23T11:35:05;1.07;;;0.60;;
8439;SDS011;4257;48.568;7.818;2024-03-23T11:37:32;4.33;;;0.73;;
8439;SDS011;4257;48.568;7.818;2024-03-23T11:39:58;0.83;;;0.50;;
8439;SDS011;4257;48.568;7.818;2024-03-23T11:42:27;0.90;;;0.80;;
8439;SDS011;4257;48.568;7.818;2024-03-23T11:44:53;0.40;;;0.40;;
8439;SDS011;4257;48.568;7.818;2024-03-23T11:47:19;1.63;;;0.50;;
8439;SDS011;4257;48.568;7.818;2024-03-23T11:49:45;1.70;;;0.60;;
8439;SDS011;4257;48.568;7.818;2024-03-23T11:52:14;0.63;;;0.50;;
8439;SDS011;4257;48.568;7.818;2024-03-23T11:54:41;0.53;;;0.53;;
8439;SDS011;4257;48.568;7.818;2024-03-23T11:57:08;0.67;;;0.47;;
8439;SDS011;4257;48.568;7.818;2024-03-23T11:59:35;0.83;;;0.60;;
8439;SDS011;4257;48.568;7.818;2024-03-23T12:02:06;1.20;;;1.03;;
8439;SDS011;4257;48.568;7.818;2024-03-23T12:04:32;0.50;;;0.40;;
8439;SDS011;4257;48.568;7.818;2024-03-23T12:07:09;0.73;;;0.63;;
8439;SDS011;4257;48.568;7.818;2024-03-23T12:09:35;2.47;;;1.43;;
8439;SDS011;4257;48.568;7.818;2024-03-23T12:12:05;0.60;;;0.40;;
8439;SDS011;4257;48.568;7.818;2024-03-23T12:14:32;0.90;;;0.90;;
8439;SDS011;4257;48.568;7.818;2024-03-23T12:17:08;0.70;;;0.57;;
8439;SDS011;4257;48.568;7.818;2024-03-23T12:19:36;1.07;;;0.57;;
8439;SDS011;4257;48.568;7.818;2024-03-23T12:22:03;0.73;;;0.40;;
8439;SDS011;4257;48.568;7.818;2024-03-23T12:24:29;1.10;;;0.77;;
8439;SDS011;4257;48.568;7.818;2024-03-23T12:26:59;2.53;;;1.27;;
8439;SDS011;4257;48.568;7.818;2024-03-23T12:29:26;0.33;;;0.33;;
8439;SDS011;4257;48.568;7.818;2024-03-23T12:31:53;1.33;;;0.80;;
8439;SDS011;4257;48.568;7.818;2024-03-23T12:34:20;1.03;;;0.77;;
8439;SDS011;4257;48.568;7.818;2024-03-23T12:36:46;0.80;;;0.80;;
8439;SDS011;4257;48.568;7.818;2024-03-23T12:39:12;0.30;;;0.30;;
8439;SDS011;4257;48.568;7.818;2024-03-23T12:41:39;0.40;;;0.40;;
8439;SDS011;4257;48.568;7.818;2024-03-23T12:44:05;0.20;;;0.20;;
8439;SDS011;4257;48.568;7.818;2024-03-23T12:46:33;0.20;;;0.10;;
8439;SDS011;4257;48.568;7.818;2024-03-23T12:48:59;2.73;;;0.43;;
8439;SDS011;4257;48.568;7.818;2024-03-23T12:51:26;0.40;;;0.30;;
8439;SDS011;4257;48.568;7.818;2024-03-23T12:53:53;0.20;;;0.20;;
8439;SDS011;4257;48.568;7.818;2024-03-23T12:56:18;0.50;;;0.40;;
8439;SDS011;4257;48.568;7.818;2024-03-23T12:58:45;0.40;;;0.30;;
8439;SDS011;4257;48.568;7.818;2024-03-23T13:01:13;2.10;;;0.30;;
8439;SDS011;4257;48.568;7.818;2024-03-23T13:03:40;0.43;;;0.40;;
8439;SDS011;4257;48.568;7.818;2024-03-23T13:06:06;5.33;;;0.50;;
8439;SDS011;4257;48.568;7.818;2024-03-23T13:08:34;0.40;;;0.40;;
8439;SDS011;4257;48.568;7.818;2024-03-23T13:10:59;0.40;;;0.30;;
8439;SDS011;4257;48.568;7.818;2024-03-23T13:13:26;1.60;;;0.43;;
8439;SDS011;4257;48.568;7.818;2024-03-23T13:15:51;0.60;;;0.40;;
8439;SDS011;4257;48.568;7.818;2024-03-23T13:18:17;0.97;;;0.73;;
8439;SDS011;4257;48.568;7.818;2024-03-23T13:20:43;0.57;;;0.47;;
8439;SDS011;4257;48.568;7.818;2024-03-23T13:23:10;0.40;;;0.30;;
8439;SDS011;4257;48.568;7.818;2024-03-23T13:25:37;0.50;;;0.33;;
8439;SDS011;4257;48.568;7.818;2024-03-23T13:28:03;4.17;;;0.50;;
8439;SDS011;4257;48.568;7.818;2024-03-23T13:30:29;0.30;;;0.30;;
8439;SDS011;4257;48.568;7.818;2024-03-23T13:32:56;0.83;;;0.30;;
8439;SDS011;4257;48.568;7.818;2024-03-23T13:35:21;0.37;;;0.30;;
8439;SDS011;4257;48.568;7.818;2024-03-23T13:37:48;0.57;;;0.20;;
8439;SDS011;4257;48.568;7.818;2024-03-23T13:40:14;0.63;;;0.63;;
8439;SDS011;4257;48.568;7.818;2024-03-23T13:42:41;0.30;;;0.30;;
8439;SDS011;4257;48.568;7.818;2024-03-23T13:45:07;1.07;;;0.30;;
8439;SDS011;4257;48.568;7.818;2024-03-23T13:47:36;2.10;;;0.30;;
8439;SDS011;4257;48.568;7.818;2024-03-23T13:50:02;0.60;;;0.33;;
8439;SDS011;4257;48.568;7.818;2024-03-23T13:52:30;0.33;;;0.33;;
8439;SDS011;4257;48.568;7.818;2024-03-23T13:54:56;0.30;;;0.27;;
8439;SDS011;4257;48.568;7.818;2024-03-23T13:57:24;1.50;;;0.83;;
8439;SDS011;4257;48.568;7.818;2024-03-23T13:59:52;0.40;;;0.33;;
8439;SDS011;4257;48.568;7.818;2024-03-23T14:02:19;0.60;;;0.40;;
8439;SDS011;4257;48.568;7.818;2024-03-23T14:04:45;0.33;;;0.30;;
8439;SDS011;4257;48.568;7.818;2024-03-23T14:07:11;0.50;;;0.37;;
8439;SDS011;4257;48.568;7.818;2024-03-23T14:09:37;0.40;;;0.27;;
8439;SDS011;4257;48.568;7.818;2024-03-23T14:12:09;0.57;;;0.50;;
8439;SDS011;4257;48.568;7.818;2024-03-23T14:14:37;0.30;;;0.20;;
8439;SDS011;4257;48.568;7.818;2024-03-23T14:17:06;3.03;;;0.50;;
8439;SDS011;4257;48.568;7.818;2024-03-23T14:19:33;1.40;;;0.85;;
8439;SDS011;4257;48.568;7.818;2024-03-23T14:22:00;0.37;;;0.30;;
8439;SDS011;4257;48.568;7.818;2024-03-23T14:24:25;0.20;;;0.20;;
8439;SDS011;4257;48.568;7.818;2024-03-23T14:26:53;0.57;;;0.27;;
8439;SDS011;4257;48.568;7.818;2024-03-23T14:29:19;1.03;;;0.57;;
8439;SDS011;4257;48.568;7.818;2024-03-23T14:31:46;0.47;;;0.47;;
8439;SDS011;4257;48.568;7.818;2024-03-23T14:34:16;0.20;;;0.20;;
8439;SDS011;4257;48.568;7.818;2024-03-23T14:36:46;1.37;;;0.83;;
8439;SDS011;4257;48.568;7.818;2024-03-23T14:39:12;0.30;;;0.20;;
8439;SDS011;4257;48.568;7.818;2024-03-23T14:41:40;0.33;;;0.30;;
8439;SDS011;4257;48.568;7.818;2024-03-23T14:44:07;0.30;;;0.27;;
8439;SDS011;4257;48.568;7.818;2024-03-23T14:46:39;0.30;;;0.30;;
8439;SDS011;4257;48.568;7.818;2024-03-23T14:49:06;0.20;;;0.20;;
8439;SDS011;4257;48.568;7.818;2024-03-23T14:51:35;0.40;;;0.40;;
8439;SDS011;4257;48.568;7.818;2024-03-23T14:54:00;0.23;;;0.20;;
8439;SDS011;4257;48.568;7.818;2024-03-23T14:56:29;1.03;;;0.83;;
8439;SDS011;4257;48.568;7.818;2024-03-23T14:58:55;0.60;;;0.50;;
8439;SDS011;4257;48.568;7.818;2024-03-23T15:01:22;0.53;;;0.43;;
8439;SDS011;4257;48.568;7.818;2024-03-23T15:03:48;0.70;;;0.60;;
8439;SDS011;4257;48.568;7.818;2024-03-23T15:06:18;0.30;;;0.23;;
8439;SDS011;4257;48.568;7.818;2024-03-23T15:08:46;0.40;;;0.40;;
8439;SDS011;4257;48.568;7.818;2024-03-23T15:11:12;1.13;;;0.37;;
8439;SDS011;4257;48.568;7.818;2024-03-23T15:13:38;0.40;;;0.40;;
8439;SDS011;4257;48.568;7.818;2024-03-23T15:16:05;0.40;;;0.30;;
8439;SDS011;4257;48.568;7.818;2024-03-23T15:18:33;8.40;;;0.67;;
8439;SDS011;4257;48.568;7.818;2024-03-23T15:21:01;1.03;;;0.77;;
8439;SDS011;4257;48.568;7.818;2024-03-23T15:23:28;1.07;;;0.60;;
8439;SDS011;4257;48.568;7.818;2024-03-23T15:25:56;0.67;;;0.67;;
8439;SDS011;4257;48.568;7.818;2024-03-23T15:28:22;1.13;;;0.80;;
8439;SDS011;4257;48.568;7.818;2024-03-23T15:30:51;0.40;;;0.30;;
8439;SDS011;4257;48.568;7.818;2024-03-23T15:33:17;3.87;;;0.40;;
8439;SDS011;4257;48.568;7.818;2024-03-23T15:35:44;0.30;;;0.20;;
8439;SDS011;4257;48.568;7.818;2024-03-23T15:38:10;8.80;;;0.50;;
8439;SDS011;4257;48.568;7.818;2024-03-23T15:40:37;0.50;;;0.20;;
8439;SDS011;4257;48.568;7.818;2024-03-23T15:43:04;0.60;;;0.40;;
8439;SDS011;4257;48.568;7.818;2024-03-23T15:45:31;0.30;;;0.20;;
8439;SDS011;4257;48.568;7.818;2024-03-23T15:47:57;0.67;;;0.40;;
8439;SDS011;4257;48.568;7.818;2024-03-23T15:50:24;0.40;;;0.23;;
8439;SDS011;4257;48.568;7.818;2024-03-23T15:52:51;0.53;;;0.30;;
8439;SDS011;4257;48.568;7.818;2024-03-23T15:55:17;0.47;;;0.30;;
8439;SDS011;4257;48.568;7.818;2024-03-23T15:57:43;1.73;;;0.50;;
8439;SDS011;4257;48.568;7.818;2024-03-23T16:00:12;5.00;;;0.20;;
8439;SDS011;4257;48.568;7.818;2024-03-23T16:02:40;0.60;;;0.30;;
8439;SDS011;4257;48.568;7.818;2024-03-23T16:05:07;0.37;;;0.30;;